GMMN/CMN METAR and TAF weather

Enter ICAO airport designator
Station Type Date Time Source
GMMN METAR 2019/06/26 22:00 UTC NOAA

GMMN 262200Z 02007KT 360V070 9999 BKN016 21/19 Q1019 NOSIG


Station Type Date Time Source
GMMN Decoded METAR 2019/06/26 22:00 UTC NOAA

Nouasseur, Morocco (GMMN) 33-22N 007-35W 206M
Jun 26, 2019 - 06:00 PM EDT / 2019.06.26 2200 UTC
Wind: from the NNE (020 degrees) at 8 MPH (7 KT) (direction variable):0
Visibility: greater than 7 mile(s):0
Sky conditions: mostly cloudy
Temperature: 69 F (21 C)
Dew Point: 66 F (19 C)
Relative Humidity: 88%
Pressure (altimeter): 30.09 in. Hg (1019 hPa)
ob: GMMN 262200Z 02007KT 360V070 9999 BKN016 21/19 Q1019 NOSIG
cycle: 22

Station Type Date Time Source
GMMN TAF 2019/06/26 18:16 UTC NOAA

TAF GMMN 261700Z 2618/2724 34015KT SCT016 BKN020
BECMG 2620/2622 36006KT BKN010
BECMG 2711/2714 36013KT BKN016
BECMG 2720/2722 02004KT

Example: see airport list